Time;durP1;ratioP1;P1;durP2;ratioP2;P2;SDS_P1;SDS_P2;PMS_P1;PMS_P2;Temp;Humidity;BMP_temperature;BMP_pressure;BME280_temperature;BME280_humidity;BME280_pressure;Samples;Min_cycle;Max_cycle;Signal;HPM_P1;HPM_P2
2023/11/01 09:25:36;;;;;;;10.70;6.40;;;;;;;;;;3642191;26;29445918;-73
2023/11/01 09:28:25;;;;;;;10.87;6.70;;;;;;;;;;5082864;28;20446;-74
2023/11/01 09:34:38;;;;;;;11.03;5.60;;;;;;;;;;5037268;28;20508;-75
2023/11/01 09:42:56;;;;;;;11.33;6.10;;;;;;;;;;4914478;26;20496;-78
2023/11/01 09:45:25;;;;;;;10.43;6.10;;;;;;;;;;5103336;28;20568;-79
2023/11/01 09:47:54;;;;;;;15.30;6.50;;;;;;;;;;5103869;28;20459;-78
2023/11/01 09:50:24;;;;;;;13.27;6.90;;;;;;;;;;5101618;28;20612;-79
2023/11/01 09:52:52;;;;;;;10.93;5.63;;;;;;;;;;5083936;28;20532;-78
2023/11/01 09:55:20;;;;;;;11.90;6.60;;;;;;;;;;5098141;28;20460;-79
2023/11/01 09:57:51;;;;;;;11.97;6.80;;;;;;;;;;5103975;28;20506;-79
2023/11/01 10:00:19;;;;;;;8.77;5.90;;;;;;;;;;5104313;28;20455;-78
2023/11/01 10:02:52;;;;;;;12.27;6.10;;;;;;;;;;5103487;28;20510;-77
2023/11/01 10:05:50;;;;;;;10.77;5.80;;;;;;;;;;5105317;28;20440;-78
2023/11/01 10:08:19;;;;;;;8.30;5.50;;;;;;;;;;5093234;28;20460;-77
2023/11/01 10:10:48;;;;;;;11.37;4.83;;;;;;;;;;5091321;28;20460;-77
2023/11/01 10:13:17;;;;;;;9.37;5.00;;;;;;;;;;5096157;28;20452;-79
2023/11/01 10:16:01;;;;;;;8.47;5.13;;;;;;;;;;5090325;28;20455;-79
2023/11/01 10:18:30;;;;;;;8.70;6.23;;;;;;;;;;5093223;28;20456;-78
2023/11/01 10:20:58;;;;;;;10.63;5.40;;;;;;;;;;5103205;28;20448;-78
2023/11/01 10:23:28;;;;;;;8.00;5.30;;;;;;;;;;5102909;28;20529;-78
2023/11/01 10:25:56;;;;;;;13.50;9.93;;;;;;;;;;5102059;28;20584;-77
2023/11/01 10:28:31;;;;;;;10.60;7.60;;;;;;;;;;5089383;28;20451;-79
2023/11/01 10:31:04;;;;;;;9.50;6.07;;;;;;;;;;5095571;28;20448;-79
2023/11/01 10:33:34;;;;;;;7.23;4.57;;;;;;;;;;5084875;28;20958;-79
2023/11/01 10:36:03;;;;;;;9.30;4.70;;;;;;;;;;5096321;28;20471;-78
2023/11/01 10:38:32;;;;;;;8.10;4.37;;;;;;;;;;5079916;28;20452;-77
2023/11/01 10:41:03;;;;;;;7.47;4.60;;;;;;;;;;5086604;28;20957;-79
2023/11/01 10:43:31;;;;;;;8.17;4.43;;;;;;;;;;5089659;28;20624;-78
2023/11/01 10:46:06;;;;;;;9.40;3.77;;;;;;;;;;5083577;28;20664;-79
2023/11/01 10:48:37;;;;;;;8.33;3.70;;;;;;;;;;5108376;28;20473;-77
2023/11/01 10:51:07;;;;;;;7.47;4.43;;;;;;;;;;5104426;28;20518;-78
2023/11/01 10:53:36;;;;;;;7.73;3.80;;;;;;;;;;5094127;28;20464;-79
2023/11/01 10:56:08;;;;;;;5.23;3.27;;;;;;;;;;5098111;28;20491;-79
2023/11/01 10:58:37;;;;;;;6.40;3.57;;;;;;;;;;5101576;28;21178;-79
2023/11/01 11:01:13;;;;;;;10.27;3.97;;;;;;;;;;5103396;28;20462;-79
2023/11/01 11:03:55;;;;;;;9.60;3.90;;;;;;;;;;5103185;28;20551;-81
2023/11/01 11:09:27;;;;;;;11.60;4.30;;;;;;;;;;5099717;28;20475;-79
2023/11/01 11:12:16;;;;;;;11.00;3.97;;;;;;;;;;5107111;28;20507;-79
2023/11/01 11:15:08;;;;;;;7.57;2.70;;;;;;;;;;5096995;28;20631;-79
2023/11/01 11:17:38;;;;;;;7.30;3.30;;;;;;;;;;5098642;28;20456;-78
2023/11/01 11:20:35;;;;;;;5.43;3.00;;;;;;;;;;5094012;28;20542;-79
2023/11/01 11:23:13;;;;;;;6.20;3.50;;;;;;;;;;5107749;28;20468;-79
2023/11/01 11:25:52;;;;;;;8.10;3.90;;;;;;;;;;5089799;28;20955;-78
2023/11/01 11:28:39;;;;;;;6.87;3.83;;;;;;;;;;5082162;28;20452;-79
2023/11/01 11:31:11;;;;;;;4.80;3.10;;;;;;;;;;5089919;28;20481;-78
2023/11/01 11:34:25;;;;;;;;;;;;;;;;;;;;;
2023/11/01 11:43:19;;;;;;;6.73;4.40;;;;;;;;;;5084303;28;20492;-79
2023/11/01 11:46:14;;;;;;;10.33;5.47;;;;;;;;;;5083243;28;20464;-79
2023/11/01 11:48:42;;;;;;;8.03;3.43;;;;;;;;;;5078720;28;20472;-79
2023/11/01 11:51:21;;;;;;;10.13;4.20;;;;;;;;;;5079208;28;20456;-78
2023/11/01 11:53:49;;;;;;;7.47;3.40;;;;;;;;;;5071283;28;20462;-79
2023/11/01 11:56:20;;;;;;;12.33;4.10;;;;;;;;;;5081270;28;20464;-79
2023/11/01 11:58:49;;;;;;;10.60;6.77;;;;;;;;;;5074391;28;20469;-79
2023/11/01 12:01:28;;;;;;;6.67;3.97;;;;;;;;;;5073479;28;20464;-78
2023/11/01 12:03:59;;;;;;;11.37;6.10;;;;;;;;;;5082057;28;20492;-78
2023/11/01 12:06:40;;;;;;;6.67;4.23;;;;;;;;;;5071721;28;20462;-79
2023/11/01 12:09:16;;;;;;;10.53;4.90;;;;;;;;;;5065301;28;20453;-78
2023/11/01 12:11:45;;;;;;;14.40;5.10;;;;;;;;;;5070406;28;20445;-79
2023/11/01 12:14:18;;;;;;;8.07;3.63;;;;;;;;;;5071768;28;20437;-79
2023/11/01 12:16:46;;;;;;;12.13;7.03;;;;;;;;;;5077146;28;20530;-80
2023/11/01 12:19:16;;;;;;;7.33;3.87;;;;;;;;;;5090307;28;20453;-78
2023/11/01 12:21:52;;;;;;;11.50;5.83;;;;;;;;;;5090928;28;20573;-77
2023/11/01 12:24:26;;;;;;;17.37;8.17;;;;;;;;;;5071511;28;20525;-78
2023/11/01 12:26:57;;;;;;;7.80;3.00;;;;;;;;;;5074167;28;20505;-79
2023/11/01 12:29:36;;;;;;;3.90;1.40;;;;;;;;;;5073414;28;20474;-79
2023/11/01 12:35:20;;;;;;;5.90;1.80;;;;;;;;;;5079095;28;20937;-78
2023/11/01 12:41:18;;;;;;;4.70;2.27;;;;;;;;;;4968353;28;20834;-79
2023/11/01 12:43:51;;;;;;;6.90;3.80;;;;;;;;;;5086938;28;20539;-78
2023/11/01 12:46:21;;;;;;;4.23;1.80;;;;;;;;;;5099576;28;20506;-81
2023/11/01 12:48:49;;;;;;;6.77;2.80;;;;;;;;;;5085027;28;20444;-79
2023/11/01 12:51:16;;;;;;;7.90;4.00;;;;;;;;;;5086882;28;20460;-78
2023/11/01 12:53:44;;;;;;;7.60;4.50;;;;;;;;;;5103216;28;20465;-78
2023/11/01 12:56:11;;;;;;;6.80;3.30;;;;;;;;;;5101369;28;20474;-78
2023/11/01 12:58:39;;;;;;;9.80;4.13;;;;;;;;;;5102843;28;20478;-78
2023/11/01 13:01:09;;;;;;;9.77;3.93;;;;;;;;;;5101336;28;20455;-80
2023/11/01 13:03:40;;;;;;;10.00;4.70;;;;;;;;;;5102319;28;20544;-79
2023/11/01 13:06:07;;;;;;;4.00;2.20;;;;;;;;;;5092299;28;20527;-79
2023/11/01 13:08:41;;;;;;;9.67;3.07;;;;;;;;;;5100377;28;20452;-78
2023/11/01 13:14:23;;;;;;;7.80;2.53;;;;;;;;;;5108685;28;20413;-78
2023/11/01 13:16:57;;;;;;;9.67;5.00;;;;;;;;;;5105729;28;20493;-78
2023/11/01 13:19:29;;;;;;;5.93;3.13;;;;;;;;;;5100164;28;20465;-80
2023/11/01 13:21:57;;;;;;;7.13;3.80;;;;;;;;;;5095112;28;20475;-77
2023/11/01 13:24:34;;;;;;;9.80;3.60;;;;;;;;;;5102252;28;20487;-79
2023/11/01 13:27:12;;;;;;;11.60;4.67;;;;;;;;;;5102932;28;20447;-78
2023/11/01 13:29:48;;;;;;;12.97;4.57;;;;;;;;;;5081986;28;20463;-78
2023/11/01 13:32:16;;;;;;;6.17;2.77;;;;;;;;;;5094118;28;20836;-79
2023/11/01 13:34:46;;;;;;;4.20;1.93;;;;;;;;;;5093044;28;20463;-79
2023/11/01 13:37:15;;;;;;;9.70;3.07;;;;;;;;;;5100445;28;20494;-79
2023/11/01 13:39:44;;;;;;;3.97;2.00;;;;;;;;;;5105292;28;20876;-79
2023/11/01 13:42:14;;;;;;;4.33;2.37;;;;;;;;;;5100529;28;20558;-78
2023/11/01 13:44:43;;;;;;;5.27;2.20;;;;;;;;;;5098718;28;20479;-78
2023/11/01 13:47:10;;;;;;;5.53;2.87;;;;;;;;;;5090381;28;20447;-78
2023/11/01 13:49:49;;;;;;;9.90;3.73;;;;;;;;;;5100672;28;20474;-78
2023/11/01 13:52:24;;;;;;;6.80;3.33;;;;;;;;;;5110040;28;20494;-79
2023/11/01 13:54:54;;;;;;;6.47;2.60;;;;;;;;;;5109794;28;20450;-79
2023/11/01 13:57:22;;;;;;;5.53;3.27;;;;;;;;;;5111449;28;20458;-78
2023/11/01 13:59:51;;;;;;;13.03;5.33;;;;;;;;;;5111243;28;20451;-79
2023/11/01 14:02:24;;;;;;;4.77;3.13;;;;;;;;;;5107053;28;20440;-78
2023/11/01 14:08:11;;;;;;;6.23;2.60;;;;;;;;;;5048307;28;20483;-79
2023/11/01 14:10:47;;;;;;;9.00;5.20;;;;;;;;;;5041936;28;20466;-77
2023/11/01 14:16:12;;;;;;;4.60;3.07;;;;;;;;;;5040166;28;20957;-78
2023/11/01 14:18:49;;;;;;;7.07;2.53;;;;;;;;;;5037697;28;20494;-79
2023/11/01 14:21:21;;;;;;;6.10;2.90;;;;;;;;;;5043529;28;20450;-78
2023/11/01 14:23:53;;;;;;;9.27;3.53;;;;;;;;;;5043869;28;20481;-79
2023/11/01 14:26:22;;;;;;;5.77;2.50;;;;;;;;;;5097506;28;20695;-78
2023/11/01 14:28:51;;;;;;;5.77;2.30;;;;;;;;;;5106122;28;20951;-78
2023/11/01 14:31:24;;;;;;;9.30;2.93;;;;;;;;;;5103762;28;20474;-79
2023/11/01 14:33:54;;;;;;;7.03;2.70;;;;;;;;;;5088623;28;20475;-78
2023/11/01 14:36:39;;;;;;;6.23;2.90;;;;;;;;;;5080025;28;20467;-78
2023/11/01 14:39:13;;;;;;;7.20;3.67;;;;;;;;;;5095997;28;20451;-77
2023/11/01 14:41:40;;;;;;;8.57;2.63;;;;;;;;;;5103989;28;20491;-78
2023/11/01 14:44:09;;;;;;;4.67;2.97;;;;;;;;;;5103830;28;20793;-77
2023/11/01 14:46:58;;;;;;;9.33;3.17;;;;;;;;;;5100302;28;20562;-78
2023/11/01 14:49:26;;;;;;;3.57;2.07;;;;;;;;;;5077063;28;20555;-78
2023/11/01 14:51:55;;;;;;;5.23;2.47;;;;;;;;;;5086407;28;20468;-78
2023/11/01 14:54:25;;;;;;;9.47;5.23;;;;;;;;;;5092527;28;20454;-78
2023/11/01 14:57:08;;;;;;;5.23;2.93;;;;;;;;;;5106741;28;20463;-79
2023/11/01 14:59:37;;;;;;;5.77;2.63;;;;;;;;;;5104357;28;20473;-79
2023/11/01 15:02:06;;;;;;;15.43;3.00;;;;;;;;;;5104409;28;20451;-78
2023/11/01 15:04:34;;;;;;;9.73;4.00;;;;;;;;;;5098238;28;20487;-79
2023/11/01 15:07:07;;;;;;;6.77;3.73;;;;;;;;;;5099385;28;20451;-78
2023/11/01 15:09:36;;;;;;;7.97;3.43;;;;;;;;;;5084400;28;20465;-80
2023/11/01 15:12:04;;;;;;;8.23;4.07;;;;;;;;;;5085175;28;20737;-79
2023/11/01 15:14:32;;;;;;;4.97;2.33;;;;;;;;;;5099969;28;20673;-78
2023/11/01 15:17:01;;;;;;;8.30;3.80;;;;;;;;;;5091631;28;20539;-80
2023/11/01 15:19:29;;;;;;;9.77;4.30;;;;;;;;;;5072264;28;20455;-78
2023/11/01 15:22:02;;;;;;;8.57;4.87;;;;;;;;;;5068272;28;20522;-77
2023/11/01 15:24:34;;;;;;;11.33;5.50;;;;;;;;;;5082938;28;20476;-79
2023/11/01 15:27:24;;;;;;;10.90;5.60;;;;;;;;;;5075438;28;20487;-78
2023/11/01 15:29:59;;;;;;;6.33;2.97;;;;;;;;;;5067710;28;20691;-78
2023/11/01 15:32:50;;;;;;;7.47;2.73;;;;;;;;;;5072426;28;20479;-79
2023/11/01 15:35:24;;;;;;;13.83;5.70;;;;;;;;;;5079585;28;20451;-79
2023/11/01 15:37:55;;;;;;;10.90;3.40;;;;;;;;;;5084867;28;20447;-79
2023/11/01 15:40:23;;;;;;;8.90;3.07;;;;;;;;;;5076301;28;20471;-79
2023/11/01 15:42:55;;;;;;;7.83;4.10;;;;;;;;;;5085323;28;20487;-78
2023/11/01 15:45:24;;;;;;;10.13;4.83;;;;;;;;;;5088467;28;20480;-78
2023/11/01 15:47:52;;;;;;;8.97;4.20;;;;;;;;;;5083273;28;20511;-78
2023/11/01 15:50:20;;;;;;;11.73;5.63;;;;;;;;;;5086037;28;20678;-78
2023/11/01 15:52:53;;;;;;;6.93;2.60;;;;;;;;;;5085634;28;20455;-78
2023/11/01 15:55:21;;;;;;;14.57;5.17;;;;;;;;;;5081984;28;20860;-79
2023/11/01 15:57:49;;;;;;;11.63;3.03;;;;;;;;;;5083514;28;20474;-77
2023/11/01 16:00:17;;;;;;;5.43;3.63;;;;;;;;;;5081700;28;21117;-78
2023/11/01 16:02:47;;;;;;;8.97;4.53;;;;;;;;;;5080575;28;20523;-78
2023/11/01 16:05:23;;;;;;;9.30;3.43;;;;;;;;;;5070062;28;20483;-78
2023/11/01 16:07:51;;;;;;;6.00;3.00;;;;;;;;;;5073164;28;20523;-77
2023/11/01 16:10:19;;;;;;;7.87;3.40;;;;;;;;;;5075500;28;20525;-77
2023/11/01 16:12:46;;;;;;;5.20;3.10;;;;;;;;;;5080366;28;20440;-78
2023/11/01 16:15:14;;;;;;;8.30;3.63;;;;;;;;;;5080908;28;20500;-79
2023/11/01 16:17:41;;;;;;;8.90;3.50;;;;;;;;;;5079462;28;20549;-80
2023/11/01 16:20:11;;;;;;;10.10;3.30;;;;;;;;;;5080568;28;20524;-78
2023/11/01 16:22:40;;;;;;;8.67;3.03;;;;;;;;;;5070702;28;20787;-79
2023/11/01 16:25:13;;;;;;;14.07;3.47;;;;;;;;;;5070545;28;20484;-80
2023/11/01 16:27:40;;;;;;;19.50;6.60;;;;;;;;;;5062848;28;20472;-80
2023/11/01 16:30:09;;;;;;;10.87;4.20;;;;;;;;;;5072129;28;20491;-79
2023/11/01 16:32:57;;;;;;;8.63;3.30;;;;;;;;;;5067238;28;20905;-79
2023/11/01 16:35:40;;;;;;;10.57;5.00;;;;;;;;;;5071616;28;20451;-77
2023/11/01 16:38:08;;;;;;;14.30;4.07;;;;;;;;;;5066310;28;20441;-78
2023/11/01 16:40:38;;;;;;;10.00;5.07;;;;;;;;;;5064657;28;20449;-78
2023/11/01 16:43:07;;;;;;;8.47;3.63;;;;;;;;;;5061806;28;20606;-77
2023/11/01 16:45:34;;;;;;;11.40;4.97;;;;;;;;;;5059797;28;20546;-78
2023/11/01 16:48:06;;;;;;;17.83;4.20;;;;;;;;;;5060303;28;20461;-78
2023/11/01 16:50:39;;;;;;;6.77;4.20;;;;;;;;;;5061792;28;20489;-78
2023/11/01 16:53:13;;;;;;;11.50;4.23;;;;;;;;;;5063367;28;20469;-77
2023/11/01 16:55:44;;;;;;;10.70;2.90;;;;;;;;;;5060383;28;20908;-79
2023/11/01 16:58:25;;;;;;;14.80;5.20;;;;;;;;;;5062473;28;20473;-78
2023/11/01 17:00:53;;;;;;;10.50;3.67;;;;;;;;;;5062857;28;20579;-78
2023/11/01 17:03:22;;;;;;;14.30;4.70;;;;;;;;;;5071786;28;20899;-78
2023/11/01 17:06:01;;;;;;;10.10;4.33;;;;;;;;;;5067340;28;20477;-78
2023/11/01 17:08:31;;;;;;;10.87;3.60;;;;;;;;;;5079320;28;20727;-77
2023/11/01 17:11:05;;;;;;;11.33;5.00;;;;;;;;;;5077248;28;20957;-77
2023/11/01 17:13:34;;;;;;;10.80;4.27;;;;;;;;;;5080687;28;20456;-78
2023/11/01 17:16:02;;;;;;;9.10;3.87;;;;;;;;;;5083784;28;20453;-77
2023/11/01 17:18:38;;;;;;;18.50;5.90;;;;;;;;;;5069191;28;20442;-80
2023/11/01 17:21:09;;;;;;;13.10;5.40;;;;;;;;;;5060742;28;20465;-79
2023/11/01 17:23:39;;;;;;;11.20;6.50;;;;;;;;;;5084257;28;20445;-77
2023/11/01 17:26:18;;;;;;;15.50;6.97;;;;;;;;;;5082970;28;20540;-77
2023/11/01 17:28:46;;;;;;;11.57;4.70;;;;;;;;;;5081023;28;21063;-78
2023/11/01 17:31:16;;;;;;;10.20;4.40;;;;;;;;;;5081151;28;20456;-79
2023/11/01 17:33:45;;;;;;;8.60;3.00;;;;;;;;;;5080644;28;20452;-78
2023/11/01 17:36:26;;;;;;;8.93;4.00;;;;;;;;;;5065678;28;20450;-78
2023/11/01 17:38:55;;;;;;;10.30;4.30;;;;;;;;;;5061174;28;20460;-78
2023/11/01 17:41:42;;;;;;;12.23;7.40;;;;;;;;;;5068010;28;20476;-79
2023/11/01 17:44:12;;;;;;;11.10;5.87;;;;;;;;;;5081278;28;20484;-81
2023/11/01 17:46:40;;;;;;;15.53;7.50;;;;;;;;;;5082423;28;20463;-79
2023/11/01 17:49:08;;;;;;;14.00;6.90;;;;;;;;;;5081248;28;20480;-79
2023/11/01 17:51:36;;;;;;;13.03;6.67;;;;;;;;;;5069902;28;20454;-81
2023/11/01 17:54:12;;;;;;;12.80;6.90;;;;;;;;;;5067279;28;20433;-79
2023/11/01 17:56:39;;;;;;;22.63;7.97;;;;;;;;;;5063071;28;20507;-78
2023/11/01 17:59:08;;;;;;;13.50;7.03;;;;;;;;;;5062994;28;20473;-78
2023/11/01 18:01:36;;;;;;;8.73;4.50;;;;;;;;;;5068585;28;20452;-78
2023/11/01 18:04:03;;;;;;;11.97;4.80;;;;;;;;;;5080359;28;20472;-78
2023/11/01 18:06:32;;;;;;;14.90;5.30;;;;;;;;;;5077142;28;20557;-79
2023/11/01 18:09:02;;;;;;;16.80;5.97;;;;;;;;;;5079662;28;20483;-79
2023/11/01 18:11:31;;;;;;;11.13;4.83;;;;;;;;;;5073868;28;20472;-79
2023/11/01 18:13:58;;;;;;;9.47;5.10;;;;;;;;;;5079725;28;20452;-79
2023/11/01 18:16:32;;;;;;;10.00;5.17;;;;;;;;;;5077539;28;20515;-79
2023/11/01 18:19:00;;;;;;;9.03;3.87;;;;;;;;;;5078372;28;20490;-78
2023/11/01 18:21:31;;;;;;;11.33;4.50;;;;;;;;;;5068912;28;20596;-77
2023/11/01 18:23:59;;;;;;;10.90;5.47;;;;;;;;;;5064118;28;20461;-78
2023/11/01 18:26:31;;;;;;;12.53;4.13;;;;;;;;;;5062113;28;20481;-78
2023/11/01 18:29:01;;;;;;;9.10;4.20;;;;;;;;;;5060819;28;20446;-79
2023/11/01 18:31:43;;;;;;;8.13;4.30;;;;;;;;;;5066236;28;20469;-78
2023/11/01 18:34:16;;;;;;;7.60;3.10;;;;;;;;;;5067278;28;20456;-80
2023/11/01 18:36:51;;;;;;;7.53;3.40;;;;;;;;;;5080452;28;20480;-79
2023/11/01 18:39:21;;;;;;;12.33;4.73;;;;;;;;;;5086339;28;20527;-78
2023/11/01 18:41:49;;;;;;;7.60;4.50;;;;;;;;;;5063073;28;20468;-79
2023/11/01 18:44:28;;;;;;;12.17;4.50;;;;;;;;;;5060462;28;20449;-80
2023/11/01 18:47:00;;;;;;;11.27;4.97;;;;;;;;;;5060525;28;20456;-79
2023/11/01 18:49:45;;;;;;;14.23;3.50;;;;;;;;;;5061715;28;20450;-79
2023/11/01 18:52:18;;;;;;;10.13;4.07;;;;;;;;;;5061308;28;20544;-78
2023/11/01 18:54:47;;;;;;;8.47;3.83;;;;;;;;;;5064575;28;20901;-78
2023/11/01 18:57:38;;;;;;;10.30;4.60;;;;;;;;;;5063583;28;20521;-78
2023/11/01 19:00:25;;;;;;;11.50;4.10;;;;;;;;;;5065494;28;20457;-78
2023/11/01 19:03:03;;;;;;;9.40;3.70;;;;;;;;;;5066178;28;20456;-78
2023/11/01 19:05:34;;;;;;;9.20;3.30;;;;;;;;;;5083566;28;20559;-78
2023/11/01 19:08:06;;;;;;;9.43;4.17;;;;;;;;;;5081098;28;20508;-78
2023/11/01 19:10:37;;;;;;;7.80;3.50;;;;;;;;;;5066669;28;20513;-80
2023/11/01 19:13:13;;;;;;;9.43;3.27;;;;;;;;;;5072696;28;20453;-79
2023/11/01 19:16:14;;;;;;;9.60;2.80;;;;;;;;;;5069278;28;20501;-79
2023/11/01 19:18:50;;;;;;;10.50;3.03;;;;;;;;;;5071798;28;20470;-79
2023/11/01 19:21:22;;;;;;;10.40;3.67;;;;;;;;;;5076214;28;20455;-80
2023/11/01 19:23:52;;;;;;;10.63;4.77;;;;;;;;;;5066119;28;20492;-81
2023/11/01 19:26:23;;;;;;;9.93;3.53;;;;;;;;;;5060720;28;20517;-81
2023/11/01 19:28:56;;;;;;;11.10;2.63;;;;;;;;;;5062685;28;20481;-80
2023/11/01 19:31:34;;;;;;;7.13;3.13;;;;;;;;;;5061301;28;20445;-81
2023/11/01 19:34:15;;;;;;;7.03;3.00;;;;;;;;;;5062578;28;20484;-81
2023/11/01 19:39:35;;;;;;;7.97;3.20;;;;;;;;;;5063468;28;20452;-81
2023/11/01 19:42:06;;;;;;;5.93;4.40;;;;;;;;;;5074606;28;20472;-80
2023/11/01 19:44:35;;;;;;;10.00;3.77;;;;;;;;;;5057741;28;20465;-78
2023/11/01 19:47:06;;;;;;;9.70;2.80;;;;;;;;;;5062133;28;20481;-80
2023/11/01 19:49:36;;;;;;;9.73;3.20;;;;;;;;;;5061120;28;20483;-81
2023/11/01 19:52:04;;;;;;;7.53;3.10;;;;;;;;;;5061336;28;20449;-80
2023/11/01 19:54:31;;;;;;;9.43;3.03;;;;;;;;;;5064089;28;20464;-80
2023/11/01 19:57:01;;;;;;;5.03;2.50;;;;;;;;;;5067276;28;20442;-82
2023/11/01 19:59:38;;;;;;;7.50;3.20;;;;;;;;;;5063516;28;20456;-81
2023/11/01 20:02:15;;;;;;;9.80;2.67;;;;;;;;;;5064772;28;20479;-80
2023/11/01 20:04:44;;;;;;;6.50;2.73;;;;;;;;;;5074702;28;20453;-80
2023/11/01 20:07:19;;;;;;;8.27;3.03;;;;;;;;;;5064863;28;20499;-80
2023/11/01 20:09:52;;;;;;;10.57;3.50;;;;;;;;;;5060322;28;20929;-81
2023/11/01 20:12:21;;;;;;;9.80;2.57;;;;;;;;;;5057565;28;20445;-83
2023/11/01 20:14:49;;;;;;;7.33;2.50;;;;;;;;;;5057121;28;20449;-81
2023/11/01 20:17:17;;;;;;;6.60;2.37;;;;;;;;;;5058736;28;20463;-81
2023/11/01 20:20:09;;;;;;;9.37;2.70;;;;;;;;;;5060895;28;20554;-79
2023/11/01 20:22:42;;;;;;;12.17;3.00;;;;;;;;;;5072682;28;20515;-79
2023/11/01 20:25:10;;;;;;;7.90;2.50;;;;;;;;;;5080446;28;20457;-80
2023/11/01 20:27:38;;;;;;;15.27;3.43;;;;;;;;;;5079224;28;20484;-80
2023/11/01 20:30:09;;;;;;;8.60;2.10;;;;;;;;;;5081194;28;20797;-80
2023/11/01 20:32:37;;;;;;;10.10;2.00;;;;;;;;;;5080382;28;20440;-81
2023/11/01 20:35:06;;;;;;;5.77;2.20;;;;;;;;;;5076711;28;20851;-80
2023/11/01 20:37:34;;;;;;;9.73;2.70;;;;;;;;;;5078338;28;20453;-80
2023/11/01 20:40:10;;;;;;;5.40;1.93;;;;;;;;;;5078256;28;20468;-79
2023/11/01 20:42:38;;;;;;;5.10;1.63;;;;;;;;;;5074743;28;20453;-79
2023/11/01 20:45:06;;;;;;;7.73;2.33;;;;;;;;;;5077710;28;20760;-80
2023/11/01 20:47:35;;;;;;;7.60;2.37;;;;;;;;;;5084587;28;20437;-80
2023/11/01 20:50:12;;;;;;;4.20;1.83;;;;;;;;;;5080172;28;20954;-81
2023/11/01 20:52:39;;;;;;;6.77;1.60;;;;;;;;;;5082517;28;20452;-80
2023/11/01 20:55:07;;;;;;;8.50;2.30;;;;;;;;;;5086042;28;20456;-81
2023/11/01 20:57:36;;;;;;;5.03;1.80;;;;;;;;;;5082193;28;20457;-81
2023/11/01 21:00:10;;;;;;;7.27;2.77;;;;;;;;;;5083220;28;20464;-79
2023/11/01 21:02:38;;;;;;;6.10;2.27;;;;;;;;;;5083451;28;20510;-80
2023/11/01 21:05:06;;;;;;;5.07;2.07;;;;;;;;;;5082838;28;20460;-79
2023/11/01 21:07:34;;;;;;;4.27;1.90;;;;;;;;;;5071630;28;20497;-81
2023/11/01 21:10:05;;;;;;;11.53;1.70;;;;;;;;;;5061717;28;20535;-78
2023/11/01 21:12:36;;;;;;;7.60;1.93;;;;;;;;;;5080164;28;20484;-79
2023/11/01 21:15:03;;;;;;;4.53;1.80;;;;;;;;;;5081336;28;20571;-79
2023/11/01 21:17:31;;;;;;;6.63;2.10;;;;;;;;;;5082813;28;20449;-79
2023/11/01 21:19:58;;;;;;;10.03;2.57;;;;;;;;;;5066172;28;20631;-77
2023/11/01 21:22:32;;;;;;;6.10;2.17;;;;;;;;;;5063207;28;20469;-78
2023/11/01 21:25:00;;;;;;;6.00;2.37;;;;;;;;;;5065419;28;20457;-80
2023/11/01 21:27:27;;;;;;;11.20;2.20;;;;;;;;;;5060196;28;20516;-80
2023/11/01 21:29:56;;;;;;;6.40;1.77;;;;;;;;;;5065042;28;20472;-79
2023/11/01 21:32:24;;;;;;;4.47;1.97;;;;;;;;;;5062706;28;20489;-81
2023/11/01 21:34:51;;;;;;;3.93;1.37;;;;;;;;;;5065635;28;20525;-80
2023/11/01 21:37:19;;;;;;;5.73;1.77;;;;;;;;;;5063749;28;20457;-79
2023/11/01 21:39:47;;;;;;;10.17;2.40;;;;;;;;;;5065547;28;20461;-80
2023/11/01 21:42:15;;;;;;;4.10;2.00;;;;;;;;;;5066051;28;20574;-79
2023/11/01 21:44:42;;;;;;;7.63;2.10;;;;;;;;;;5062884;28;20454;-80
2023/11/01 21:47:12;;;;;;;6.60;2.43;;;;;;;;;;5067755;28;20605;-80
2023/11/01 21:49:40;;;;;;;6.43;1.90;;;;;;;;;;5061378;28;20453;-79
2023/11/01 21:52:18;;;;;;;7.57;3.10;;;;;;;;;;5060149;28;20457;-78
2023/11/01 21:54:45;;;;;;;5.73;2.50;;;;;;;;;;5062767;28;20465;-80
2023/11/01 21:57:13;;;;;;;8.10;2.03;;;;;;;;;;5064219;28;20721;-81
2023/11/01 21:59:41;;;;;;;4.73;1.33;;;;;;;;;;5068084;28;20460;-80
2023/11/01 22:02:16;;;;;;;5.43;2.20;;;;;;;;;;5067793;28;20454;-78
2023/11/01 22:04:45;;;;;;;7.20;1.57;;;;;;;;;;5068015;28;20476;-79
2023/11/01 22:07:15;;;;;;;5.03;1.40;;;;;;;;;;5065818;28;20518;-80
2023/11/01 22:09:42;;;;;;;2.90;1.10;;;;;;;;;;5047356;28;20526;-80
2023/11/01 22:12:10;;;;;;;4.30;1.37;;;;;;;;;;5065348;28;20457;-80
2023/11/01 22:14:39;;;;;;;4.90;1.40;;;;;;;;;;5062739;28;20855;-79
2023/11/01 22:17:07;;;;;;;4.57;1.40;;;;;;;;;;5063115;28;20434;-79
2023/11/01 22:19:37;;;;;;;6.40;1.83;;;;;;;;;;5065426;28;20477;-79
2023/11/01 22:22:09;;;;;;;4.37;1.50;;;;;;;;;;5064894;28;20465;-81
2023/11/01 22:24:37;;;;;;;6.73;2.10;;;;;;;;;;5060128;28;20510;-80
2023/11/01 22:27:06;;;;;;;7.10;1.83;;;;;;;;;;5060343;28;20493;-80
2023/11/01 22:29:44;;;;;;;4.13;1.43;;;;;;;;;;5063672;28;20532;-81
2023/11/01 22:32:22;;;;;;;6.20;1.70;;;;;;;;;;5065287;28;20445;-79
2023/11/01 22:34:52;;;;;;;5.97;1.57;;;;;;;;;;5064826;28;20460;-80
2023/11/01 22:37:20;;;;;;;4.20;1.30;;;;;;;;;;5062777;28;20456;-78
2023/11/01 22:39:50;;;;;;;6.53;1.60;;;;;;;;;;5064128;28;20433;-80
2023/11/01 22:42:20;;;;;;;9.03;1.70;;;;;;;;;;5063124;28;20460;-81
2023/11/01 22:44:48;;;;;;;4.30;1.70;;;;;;;;;;5059582;28;20472;-79
2023/11/01 22:47:16;;;;;;;5.73;1.90;;;;;;;;;;5061573;28;20508;-78
2023/11/01 22:49:43;;;;;;;5.23;1.60;;;;;;;;;;5064433;28;20453;-80
2023/11/01 22:52:13;;;;;;;7.83;1.70;;;;;;;;;;5067587;28;20473;-79
2023/11/01 22:54:40;;;;;;;9.40;1.80;;;;;;;;;;5064012;28;20523;-80
2023/11/01 22:57:08;;;;;;;5.30;1.43;;;;;;;;;;5064669;28;20625;-79
2023/11/01 22:59:37;;;;;;;4.63;2.40;;;;;;;;;;5067442;28;20457;-79
2023/11/01 23:02:06;;;;;;;3.70;1.20;;;;;;;;;;5062362;28;20449;-78
2023/11/01 23:04:34;;;;;;;7.30;1.90;;;;;;;;;;5065288;28;20456;-79
2023/11/01 23:07:01;;;;;;;5.73;1.70;;;;;;;;;;5064710;28;20485;-79
2023/11/01 23:09:30;;;;;;;7.10;1.57;;;;;;;;;;5064766;28;20446;-78
2023/11/01 23:11:58;;;;;;;3.30;1.40;;;;;;;;;;5061529;28;20461;-78
2023/11/01 23:14:25;;;;;;;4.07;1.60;;;;;;;;;;5060472;28;20493;-79
2023/11/01 23:16:52;;;;;;;3.10;1.10;;;;;;;;;;5061881;28;20437;-79
2023/11/01 23:19:21;;;;;;;3.13;1.47;;;;;;;;;;5065354;28;20453;-79
2023/11/01 23:21:48;;;;;;;6.50;1.20;;;;;;;;;;5066616;28;20508;-81
2023/11/01 23:24:16;;;;;;;4.40;1.47;;;;;;;;;;5058053;28;20548;-80
2023/11/01 23:26:53;;;;;;;4.33;1.40;;;;;;;;;;5058419;28;20544;-80
2023/11/01 23:29:24;;;;;;;3.93;1.17;;;;;;;;;;5062445;28;20529;-79
2023/11/01 23:31:52;;;;;;;4.20;1.57;;;;;;;;;;5063063;28;20587;-80
2023/11/01 23:34:44;;;;;;;3.83;1.40;;;;;;;;;;5064911;28;20487;-78
2023/11/01 23:37:18;;;;;;;5.13;1.57;;;;;;;;;;5064295;28;20457;-79
2023/11/01 23:39:46;;;;;;;5.27;1.30;;;;;;;;;;5064421;28;20472;-81
2023/11/01 23:42:16;;;;;;;12.40;2.07;;;;;;;;;;5071460;28;20425;-80
2023/11/01 23:44:45;;;;;;;7.00;1.50;;;;;;;;;;5072249;28;20464;-80
2023/11/01 23:47:13;;;;;;;4.47;1.90;;;;;;;;;;5072446;28;20493;-80
2023/11/01 23:50:06;;;;;;;7.40;1.50;;;;;;;;;;5062095;28;20971;-80
2023/11/01 23:52:34;;;;;;;3.87;1.13;;;;;;;;;;5043865;28;20476;-80
2023/11/01 23:55:01;;;;;;;4.63;1.20;;;;;;;;;;5060999;28;20479;-80
2023/11/01 23:57:31;;;;;;;9.37;1.93;;;;;;;;;;5063521;28;20469;-79
2023/11/01 23:59:59;;;;;;;4.57;1.80;;;;;;;;;;5067151;28;20536;-81
